Airfield :
LOGIN :

Register | Disclaimer

   EN    FR    IT 

 










Legend :    VFR   Marginal VFR   IFR   Intensive IFR   Very Intensive IFR
Visi :
Ceiling :
>= 8 km
>= 3000ft
5 to 8 km
1000 to 3000 ft
1500m to 5 km
500 to 1000 ft
800 to 1500m
200 to 500 ft
< 800m
< 200 ft
Symbols :   Thunderstorms  Fog  Heavy snow  Heavy precipitations  Wind > 20 kt
SIGMETs :     Misc.  Thunderstorms  Icing  Turbulence  Mountain Waves  Volcanic Ashes






- Airport Elevation : 7 ft
- IATA code : XHE


LFTH - Hyeres

CURRENT METAR :
  • 190230Z AUTO VRB03KT CAVOK 03/01 Q1024 NOSIG

EXPIRED METARs :
  • 190200Z AUTO VRB03KT CAVOK 04/01 Q1025 NOSIG
  • 190130Z AUTO VRB03KT CAVOK 04/01 Q1025 NOSIG
  • 190100Z AUTO 34003KT 310V020 CAVOK 04/01 Q1024 NOSIG
  • 190030Z AUTO 32005KT 290V350 CAVOK 04/02 Q1025 NOSIG
  • 190000Z AUTO VRB03KT CAVOK 05/01 Q1025 NOSIG

TAF TAF LFTH
Valid from the 19 at 03:00 until the 20 at 03:00 UTC


190200Z 1903/2003 35006KT CAVOK
BECMG 1910/1912 25010KT
BECMG 1913/1915 VRB04KT BKN030
BECMG 1919/1922 19010KT



MET'MAP, your aeronautical weather chart ! - Copyright ORBIFLY December 2007 - Disclaimer

ORBIFLY MET'MAP TEAM :

Programming & Development : Alexandra Zaïnal
Concept & original design : Baudouin d'Aumeries
Assistance for programming : Marc-Olivier Méhu
Technical & hardware support : Manuel Goepfert

Contact : metmap@orbifly.com




SOURCES & CREDITS :

   NOAA